Time;durP1;ratioP1;P1;durP2;ratioP2;P2;SDS_P1;SDS_P2;PMS_P1;PMS_P2;Temp;Humidity;BMP_temperature;BMP_pressure;BME280_temperature;BME280_humidity;BME280_pressure;Samples;Min_cycle;Max_cycle;Signal;HPM_P1;HPM_P2
2022/08/09 00:02:28;;;;;;;;;;;17.60;99.90;;;16.72;85.11;96239.06;10371208;28;1858;-70
2022/08/09 00:07:32;;;;;;;;;;;17.60;99.90;;;16.71;85.26;96235.53;10373043;28;2062;-75
2022/08/09 00:12:47;;;;;;;;;;;;;;;16.53;85.45;96241.81;10386243;28;1904;-74
2022/08/09 00:17:54;;;;;;;;;;;17.30;99.90;;;16.40;85.77;96243.41;10378975;28;1995;-74
2022/08/09 00:23:13;;;;;;;;;;;17.30;99.90;;;16.34;86.97;96246.53;10381980;28;1995;-68
2022/08/09 00:28:36;;;;;;;;;;;17.20;99.90;;;16.38;86.42;96245.63;10365545;28;2025;-70
2022/08/09 00:33:40;;;;;;;;;;;17.20;99.90;;;16.33;86.58;96253.84;10385618;28;1995;-70
2022/08/09 00:38:52;;;;;;;;;;;17.20;99.90;;;16.25;87.87;96242.91;10363280;28;2149;-70
2022/08/09 00:43:56;;;;;;;;;;;17.10;99.90;;;16.17;88.97;96245.19;10384403;28;1938;-70
2022/08/09 00:49:19;;;;;;;;;;;17.00;99.90;;;16.15;88.44;96246.56;10383996;28;1996;-71
2022/08/09 00:54:22;;;;;;;;;;;17.00;99.90;;;16.10;88.93;96247.50;10365927;28;1972;-70
2022/08/09 00:59:40;;;;;;;;;;;17.00;99.90;;;15.95;90.44;96251.25;10375738;28;2130;-69
2022/08/09 01:04:54;;;;;;;;;;;17.00;99.90;;;15.84;91.20;96248.97;10376413;28;2029;-70
2022/08/09 01:09:57;;;;;;;;;;;16.80;99.90;;;15.79;92.79;96254.50;10372474;28;2000;-70
2022/08/09 01:15:20;;;;;;;;;;;16.80;99.90;;;15.79;92.32;96246.38;10361873;28;2064;-71
2022/08/09 01:20:24;;;;;;;;;;;16.70;99.90;;;15.73;92.15;96261.09;10377521;28;1979;-70
2022/08/09 01:25:30;;;;;;;;;;;16.70;99.90;;;15.66;92.34;96251.44;10347286;28;1936;-69
2022/08/09 01:30:40;;;;;;;;;;;16.60;99.90;;;15.62;92.34;96250.41;10361024;28;2002;-70
2022/08/09 01:36:01;;;;;;;;;;;16.50;99.90;;;15.56;92.12;96256.16;10354089;28;1940;-70
2022/08/09 01:41:14;;;;;;;;;;;16.50;99.90;;;15.51;92.08;96258.94;10355034;28;1885;-70
2022/08/09 01:46:18;;;;;;;;;;;16.40;99.90;;;15.50;91.94;96249.19;10369465;28;2046;-69
2022/08/09 01:51:41;;;;;;;;;;;16.40;99.90;;;15.52;91.14;96250.50;10373917;28;1969;-69
2022/08/09 01:56:55;;;;;;;;;;;16.40;99.90;;;15.47;91.96;96249.81;10355790;28;2354;-69
2022/08/09 02:01:59;;;;;;;;;;;16.40;99.90;;;15.43;92.36;96252.28;10350565;28;2081;-69
2022/08/09 02:07:10;;;;;;;;;;;16.40;99.90;;;15.36;92.92;96265.38;10380121;28;1905;-70
2022/08/09 02:12:33;;;;;;;;;;;16.30;99.90;;;15.25;93.30;96264.72;10365506;28;2022;-67
2022/08/09 02:17:36;;;;;;;;;;;16.10;99.90;;;15.25;93.08;96266.63;10359709;28;1977;-69
2022/08/09 02:23:00;;;;;;;;;;;16.20;99.90;;;15.31;93.56;96276.28;10351172;28;2028;-69
2022/08/09 02:28:04;;;;;;;;;;;16.20;99.90;;;15.14;94.28;96274.06;10377427;28;1944;-68
2022/08/09 02:33:11;;;;;;;;;;;16.10;99.90;;;15.07;94.07;96277.13;10352527;28;1887;-69
2022/08/09 02:38:16;;;;;;;;;;;16.00;99.90;;;14.89;95.14;96269.78;10370839;28;2317;-69
2022/08/09 02:43:31;;;;;;;;;;;15.90;99.90;;;14.80;95.81;96271.50;10372063;28;2369;-69
2022/08/09 02:48:55;;;;;;;;;;;15.80;99.90;;;14.68;96.30;96273.78;10374377;28;1902;-70
2022/08/09 02:53:58;;;;;;;;;;;15.70;99.90;;;14.56;97.83;96277.69;10350254;28;1972;-69
2022/08/09 02:59:03;;;;;;;;;;;15.60;99.90;;;14.48;99.05;96278.31;10379872;28;1992;-73
2022/08/09 03:04:07;;;;;;;;;;;15.50;99.90;;;14.46;99.54;96272.41;10364302;28;1898;-69
2022/08/09 03:09:20;;;;;;;;;;;15.40;99.90;;;14.34;100.00;96277.34;10363221;28;1996;-68
2022/08/09 03:14:23;;;;;;;;;;;15.40;99.90;;;14.25;100.00;96269.06;10368523;28;2010;-68
2022/08/09 03:19:30;;;;;;;;;;;15.10;99.90;;;14.21;100.00;96257.19;10373933;28;1985;-69
2022/08/09 03:24:53;;;;;;;;;;;15.10;99.90;;;14.19;100.00;96262.09;10365469;28;2005;-69
2022/08/09 03:30:16;;;;;;;;;;;15.10;99.90;;;14.32;100.00;96264.13;10353795;28;2016;-69
2022/08/09 03:35:35;;;;;;;;;;;15.20;99.90;;;14.27;100.00;96274.19;10366701;28;1984;-69
2022/08/09 03:40:58;;;;;;;;;;;15.20;99.90;;;14.26;100.00;96277.97;10354785;28;2011;-70
2022/08/09 03:46:04;;;;;;;;;;;15.20;99.90;;;14.10;100.00;96271.09;10372327;28;2047;-71
2022/08/09 03:51:28;;;;;;;;;;;15.10;99.90;;;14.07;100.00;96289.50;10347885;28;2077;-73
2022/08/09 03:56:51;;;;;;;;;;;15.00;99.90;;;14.18;100.00;96286.69;10360699;28;1985;-74
2022/08/09 04:01:54;;;;;;;;;;;15.10;99.90;;;14.22;100.00;96290.44;10346306;28;2109;-68
2022/08/09 04:06:57;;;;;;;;;;;15.10;99.90;;;14.19;100.00;96288.31;10356228;28;1995;-69
2022/08/09 04:12:01;;;;;;;;;;;15.10;99.90;;;14.18;100.00;96303.72;10350689;28;2362;-68
2022/08/09 04:17:12;;;;;;;;;;;15.10;99.90;;;14.20;100.00;96295.34;10370866;28;1985;-68
2022/08/09 04:22:15;;;;;;;;;;;15.00;99.90;;;14.45;100.00;96308.63;10369497;28;1986;-68
2022/08/09 04:27:19;;;;;;;;;;;15.10;99.90;;;14.53;100.00;96304.53;10370426;28;1931;-68
2022/08/09 04:32:24;;;;;;;;;;;15.20;99.90;;;14.57;100.00;96309.09;10349676;28;1975;-69
2022/08/09 04:37:35;;;;;;;;;;;15.40;99.90;;;14.79;100.00;96308.56;10356454;28;2132;-69
2022/08/09 04:42:48;;;;;;;;;;;15.50;99.90;;;14.81;99.20;96311.78;10347978;28;1924;-70
2022/08/09 04:47:52;;;;;;;;;;;15.50;99.90;;;15.17;96.99;96321.44;10363988;28;2092;-70
2022/08/09 04:53:06;;;;;;;;;;;15.80;99.90;;;15.44;94.54;96324.31;10350455;28;2014;-69
2022/08/09 04:58:15;;;;;;;;;;;16.00;99.90;;;15.59;93.29;96321.44;10371516;28;2103;-70
2022/08/09 05:03:18;;;;;;;;;;;16.20;99.90;;;15.74;91.84;96325.03;10356154;28;2045;-69
2022/08/09 05:08:41;;;;;;;;;;;16.40;99.90;;;15.76;92.40;96337.19;10349080;28;1954;-72
2022/08/09 05:13:49;;;;;;;;;;;16.40;99.90;;;16.07;89.97;96326.72;10349411;28;2013;-66
2022/08/09 05:18:56;;;;;;;;;;;16.70;99.90;;;16.32;89.21;96338.25;10373429;28;2018;-65
2022/08/09 05:24:02;;;;;;;;;;;17.00;99.90;;;16.67;86.95;96328.72;10371313;28;2029;-65
2022/08/09 05:29:07;;;;;;;;;;;17.30;99.90;;;16.52;88.52;96337.91;10376602;28;1948;-64
2022/08/09 05:34:22;;;;;;;;;;;17.40;99.90;;;16.85;86.80;96336.00;10368729;28;2085;-63
2022/08/09 05:39:33;;;;;;;;;;;17.50;99.90;;;16.92;86.89;96338.31;10358440;28;2052;-63
2022/08/09 05:44:38;;;;;;;;;;;17.70;99.90;;;17.05;86.32;96345.69;10355651;28;1998;-64
2022/08/09 05:49:44;;;;;;;;;;;17.80;99.90;;;17.45;85.13;96337.84;10374709;28;1877;-65
2022/08/09 05:55:09;;;;;;;;;;;18.00;99.90;;;17.50;84.97;96335.03;10369786;28;1916;-64
2022/08/09 06:00:22;;;;;;;;;;;18.10;99.90;;;17.51;84.48;96336.63;10373167;28;2025;-65
2022/08/09 06:05:25;;;;;;;;;;;18.20;99.90;;;17.92;82.89;96347.44;10377320;28;2341;-63
2022/08/09 06:10:48;;;;;;;;;;;18.50;99.90;;;17.97;82.28;96344.63;10357501;28;1976;-64
2022/08/09 06:15:53;;;;;;;;;;;18.60;99.90;;;17.80;81.19;96347.97;10376030;28;2052;-64
2022/08/09 06:20:57;;;;;;;;;;;18.70;99.90;;;18.66;78.95;96344.34;10349477;28;1988;-64
2022/08/09 06:26:01;;;;;;;;;;;19.00;99.90;;;18.89;75.61;96345.94;10352341;28;2059;-64
2022/08/09 06:31:05;;;;;;;;;;;19.50;99.90;;;18.98;74.48;96345.97;10374338;28;2079;-66
2022/08/09 06:36:08;;;;;;;;;;;19.80;99.90;;;18.92;73.26;96351.88;10364747;28;1920;-64
2022/08/09 06:41:15;;;;;;;;;;;19.80;99.90;;;19.39;71.84;96350.28;10352137;28;1986;-64
2022/08/09 06:46:22;;;;;;;;;;;20.00;99.90;;;19.84;70.82;96350.91;10354025;28;1958;-65
2022/08/09 06:51:42;;;;;;;;;;;20.30;99.90;;;19.87;69.81;96355.75;10374999;28;2094;-64
2022/08/09 06:56:47;;;;;;;;;;;20.60;99.90;;;20.16;68.42;96354.31;10367767;28;2299;-65
2022/08/09 07:01:50;;;;;;;;;;;20.70;99.90;;;20.25;68.05;96360.59;10351088;28;1969;-63
2022/08/09 07:07:06;;;;;;;;;;;20.80;99.90;;;19.94;68.19;96355.28;10362756;28;1841;-63
2022/08/09 07:12:13;;;;;;;;;;;20.90;99.90;;;20.96;64.75;96358.28;10360984;28;1884;-64
2022/08/09 07:17:20;;;;;;;;;;;21.10;99.90;;;20.97;63.73;96364.53;10367595;28;1918;-62
2022/08/09 07:22:23;;;;;;;;;;;21.50;99.90;;;21.30;60.77;96362.03;10370848;28;1870;-64
2022/08/09 07:27:37;;;;;;;;;;;21.90;99.90;;;21.59;58.99;96358.53;10358493;28;1923;-64
2022/08/09 07:32:56;;;;;;;;;;;22.20;99.90;;;20.71;60.79;96362.66;10370049;28;1955;-66
2022/08/09 07:37:59;;;;;;;;;;;22.00;99.90;;;20.88;59.65;96366.50;10350298;28;1914;-74
2022/08/09 07:43:02;;;;;;;;;;;21.80;99.90;;;20.85;56.34;96362.47;10364318;28;1906;-66
2022/08/09 07:48:17;;;;;;;;;;;21.70;99.90;;;20.94;56.39;96370.66;10369151;28;1915;-64
2022/08/09 07:53:34;;;;;;;;;;;21.70;99.90;;;21.27;55.68;96384.56;10363601;28;1983;-64
2022/08/09 07:58:56;;;;;;;;;;;21.80;99.90;;;21.18;56.78;96381.84;10365344;28;1902;-63
2022/08/09 08:04:01;;;;;;;;;;;21.90;99.90;;;21.07;55.59;96393.47;10353964;28;1883;-64
2022/08/09 08:09:04;;;;;;;;;;;21.90;99.90;;;21.69;52.87;96379.22;10372121;28;1856;-64
2022/08/09 08:14:27;;;;;;;;;;;22.10;99.90;;;21.81;53.35;96388.34;10372233;28;1844;-65
2022/08/09 08:19:30;;;;;;;;;;;22.50;99.90;;;21.92;53.36;96388.78;10358125;28;1973;-64
2022/08/09 08:24:33;;;;;;;;;;;;;;;21.81;51.63;96393.81;10370804;28;1734;-64
2022/08/09 08:29:42;;;;;;;;;;;;;;;22.08;51.15;96389.00;10373135;28;1888;-64
2022/08/09 08:34:53;;;;;;;;;;;;;;;21.99;50.82;96386.31;10379934;28;1932;-65
2022/08/09 08:40:01;;;;;;;;;;;;;;;21.90;50.52;96385.56;10385698;28;1906;-64
2022/08/09 08:45:05;;;;;;;;;;;;;;;21.81;49.17;96387.53;10376235;28;1852;-63
2022/08/09 08:50:18;;;;;;;;;;;;;;;21.80;47.77;96386.75;10367459;28;1950;-63
2022/08/09 08:55:21;;;;;;;;;;;23.00;99.90;;;22.32;46.94;96380.13;10359750;28;2749;-74
2022/08/09 09:00:27;;;;;;;;;;;23.20;99.90;;;22.38;44.25;96382.34;10347893;28;1977;-70
2022/08/09 09:05:36;;;;;;;;;;;23.30;99.90;;;22.19;43.73;96392.97;10352768;28;1886;-65
2022/08/09 09:11:00;;;;;;;;;;;23.00;99.90;;;22.19;43.72;96381.22;10361140;28;1860;-65
2022/08/09 09:16:03;;;;;;;;;;;22.90;99.90;;;22.48;43.24;96383.09;10360654;28;1824;-65
2022/08/09 09:21:09;;;;;;;;;;;23.20;99.90;;;;;;10360778;28;2055;-64
2022/08/09 09:26:14;;;;;;;;;;;23.20;99.90;;;22.70;41.70;96390.13;10376253;28;1885;-63
2022/08/09 09:31:21;;;;;;;;;;;23.30;99.90;;;22.77;41.05;96369.25;10363261;28;1921;-64
2022/08/09 13:17:19;;;;;;;;;;;25.70;97.00;;;24.80;36.66;96300.72;10374462;28;1863;-66
2022/08/09 13:22:42;;;;;;;;;;;25.70;97.20;;;24.75;35.54;96306.50;10383727;28;2033;-64
2022/08/09 13:28:05;;;;;;;;;;;25.70;95.70;;;24.93;34.89;96306.94;10362707;28;1974;-65
2022/08/09 13:33:09;;;;;;;;;;;25.80;94.50;;;24.90;37.00;96296.69;10358628;28;1978;-64
2022/08/09 13:38:18;;;;;;;;;;;25.80;96.50;;;25.22;35.23;96300.28;10377472;28;2001;-64
2022/08/09 13:43:41;;;;;;;;;;;26.00;95.50;;;25.15;35.38;96297.34;10358391;28;2002;-64
2022/08/09 13:48:45;;;;;;;;;;;26.10;95.00;;;25.12;35.81;96285.09;10375654;28;1927;-64
2022/08/09 13:53:50;;;;;;;;;;;26.00;95.60;;;25.09;35.33;96304.25;10375474;28;1971;-63
2022/08/09 13:58:54;;;;;;;;;;;26.00;94.70;;;25.10;34.34;96290.16;10375493;28;1902;-64
2022/08/09 14:03:56;;;;;;;;;;;26.00;93.40;;;25.07;35.12;96290.88;10372728;28;1957;-63
2022/08/09 14:09:08;;;;;;;;;;;26.00;93.90;;;25.09;34.78;96293.25;10366787;28;1836;-65
2022/08/09 14:14:12;;;;;;;;;;;26.10;93.30;;;25.13;34.85;96297.72;10381650;28;1885;-64
2022/08/09 14:19:29;;;;;;;;;;;26.10;93.30;;;25.04;34.71;96300.63;10358261;28;2127;-64
2022/08/09 14:24:35;;;;;;;;;;;26.10;93.00;;;25.14;34.61;96279.25;10373360;28;1887;-65
2022/08/09 14:29:49;;;;;;;;;;;26.00;92.80;;;25.32;34.94;96286.78;10357341;28;1951;-63
2022/08/09 14:35:12;;;;;;;;;;;26.20;93.30;;;25.08;34.34;96297.97;10375635;28;1811;-62
2022/08/09 14:40:17;;;;;;;;;;;26.10;91.80;;;25.29;33.94;96292.97;10368399;28;1918;-65
2022/08/09 14:45:40;;;;;;;;;;;26.20;91.40;;;25.24;33.58;96296.00;10354888;28;1774;-64
2022/08/09 14:51:03;;;;;;;;;;;26.20;90.90;;;25.38;33.36;96280.97;10371909;28;1840;-66
2022/08/09 14:56:06;;;;;;;;;;;26.20;90.70;;;25.29;33.51;96281.97;10365688;28;1865;-65
2022/08/09 15:01:14;;;;;;;;;;;26.30;90.00;;;25.40;33.21;96282.25;10380688;28;1933;-66
2022/08/09 15:06:21;;;;;;;;;;;26.30;90.10;;;25.50;33.05;96275.38;10369474;28;1871;-65
2022/08/09 15:11:28;;;;;;;;;;;26.40;89.90;;;25.32;33.95;96275.78;10356422;28;1840;-65
2022/08/09 15:16:31;;;;;;;;;;;26.40;90.00;;;25.42;34.08;96263.41;10356277;28;2139;-64
2022/08/09 15:21:35;;;;;;;;;;;26.40;90.60;;;25.62;33.84;96272.50;10366990;28;1911;-63
2022/08/09 15:26:58;;;;;;;;;;;26.50;90.60;;;25.36;33.74;96259.34;10358897;28;1851;-65
2022/08/09 15:32:02;;;;;;;;;;;26.30;90.30;;;25.31;33.39;96270.59;10359079;28;1870;-64
2022/08/09 15:37:33;;;;;;;;;;;26.40;89.30;;;25.26;33.08;96260.69;10370823;28;1911;-67
2022/08/09 15:42:50;;;;;;;;;;;26.20;89.20;;;25.33;33.17;96255.34;10355285;28;1977;-65
2022/08/09 15:47:54;;;;;;;;;;;26.20;89.20;;;25.02;34.12;96250.63;10372203;28;1839;-64
2022/08/09 15:53:09;;;;;;;;;;;26.00;89.90;;;24.87;34.13;96273.41;10374086;28;1781;-65
2022/08/09 15:58:32;;;;;;;;;;;25.90;89.40;;;24.59;33.98;96254.25;10353023;28;2614;-64
2022/08/09 16:03:36;;;;;;;;;;;25.50;88.90;;;24.58;34.65;96269.13;10352744;28;2037;-65
2022/08/09 16:08:43;;;;;;;;;;;25.50;89.60;;;24.39;35.33;96266.25;10370415;28;1884;-64
2022/08/09 16:13:51;;;;;;;;;;;25.30;90.60;;;24.16;36.10;96268.72;10358362;28;1789;-64
2022/08/09 16:19:08;;;;;;;;;;;25.20;91.20;;;24.25;36.52;96259.19;10371551;28;1915;-64
2022/08/09 16:24:15;;;;;;;;;;;25.10;92.20;;;24.36;36.62;96255.94;10357681;28;1777;-64
2022/08/09 16:29:35;;;;;;;;;;;25.20;92.40;;;24.23;36.35;96247.72;10376181;28;1911;-67
2022/08/09 16:34:53;;;;;;;;;;;25.10;92.20;;;24.16;36.76;96253.03;10379156;28;1840;-64
2022/08/09 16:40:00;;;;;;;;;;;25.00;92.40;;;24.02;37.55;96260.06;10361149;28;1993;-70
2022/08/09 16:45:08;;;;;;;;;;;24.90;93.20;;;24.02;37.89;96249.09;10380608;28;1793;-65
2022/08/09 16:50:11;;;;;;;;;;;24.80;93.80;;;23.89;38.38;96251.06;10380067;28;1844;-65
2022/08/09 16:55:34;;;;;;;;;;;24.80;94.20;;;23.84;38.57;96251.31;10373392;28;1907;-65
2022/08/09 17:00:57;;;;;;;;;;;24.70;94.50;;;23.85;38.88;96250.16;10365723;28;1952;-64
2022/08/09 17:06:01;;;;;;;;;;;24.70;95.10;;;23.82;38.66;96248.13;10361217;28;1834;-64
2022/08/09 17:11:24;;;;;;;;;;;24.70;94.90;;;23.67;38.33;96255.94;10363351;28;1790;-66
2022/08/09 17:16:44;;;;;;;;;;;24.60;94.10;;;23.61;38.58;96264.72;10384913;28;1844;-64
2022/08/09 17:21:47;;;;;;;;;;;24.50;94.40;;;23.51;39.26;96265.97;10373550;28;1981;-63
2022/08/09 17:26:57;;;;;;;;;;;24.40;94.90;;;23.48;39.48;96269.44;10379349;28;1866;-64
2022/08/09 17:32:00;;;;;;;;;;;24.30;95.30;;;23.38;39.33;96269.88;10379876;28;1789;-66
2022/08/09 17:37:04;;;;;;;;;;;24.20;95.00;;;23.24;39.58;96274.91;10358972;28;2223;-64
2022/08/09 17:42:21;;;;;;;;;;;24.10;95.50;;;23.17;40.33;96273.53;10355555;28;1985;-64
2022/08/09 17:47:46;;;;;;;;;;;24.00;96.10;;;23.05;40.32;96268.06;10360914;28;1857;-64
2022/08/09 17:52:56;;;;;;;;;;;23.90;96.10;;;22.93;41.00;96274.31;10376815;28;1843;-64
2022/08/09 17:58:00;;;;;;;;;;;23.80;96.70;;;22.80;41.38;96280.91;10374689;28;1796;-64
2022/08/09 18:03:07;;;;;;;;;;;23.70;97.00;;;22.64;41.72;96283.47;10385420;28;1978;-65
2022/08/09 18:08:12;;;;;;;;;;;23.60;97.30;;;22.55;42.24;96288.25;10351242;28;1807;-65
2022/08/09 18:13:15;;;;;;;;;;;23.50;98.00;;;22.45;42.79;96285.94;10354765;28;1868;-64
2022/08/09 18:18:38;;;;;;;;;;;23.40;98.50;;;22.29;43.23;96298.66;10355984;28;1933;-64
2022/08/09 18:23:45;;;;;;;;;;;23.30;98.90;;;22.12;43.83;96300.41;10381617;28;1979;-65
2022/08/09 18:29:09;;;;;;;;;;;23.10;99.40;;;22.00;44.48;96303.03;10375691;28;1803;-64
2022/08/09 18:34:33;;;;;;;;;;;23.00;99.90;;;21.77;45.26;96304.53;10377242;28;1840;-69
2022/08/09 18:39:37;;;;;;;;;;;22.80;99.90;;;21.77;45.55;96299.84;10376076;28;1981;-75
2022/08/09 18:44:43;;;;;;;;;;;22.70;99.90;;;21.61;45.92;96311.69;10374927;28;1914;-71
2022/08/09 18:49:47;;;;;;;;;;;22.60;99.90;;;21.43;46.33;96311.00;10357731;28;1804;-66
2022/08/09 18:54:53;;;;;;;;;;;22.40;99.90;;;21.20;47.04;96324.13;10377566;28;1793;-65
2022/08/09 19:00:00;;;;;;;;;;;22.20;99.90;;;21.10;47.08;96321.72;10382307;28;1977;-64
2022/08/09 19:05:06;;;;;;;;;;;22.10;99.90;;;21.00;47.38;96331.91;10357321;28;1789;-64
2022/08/09 19:10:28;;;;;;;;;;;22.00;99.90;;;20.82;47.85;96335.00;10355965;28;1844;-64
2022/08/09 19:15:40;;;;;;;;;;;;;;;20.75;48.22;96340.97;10363457;28;1856;-68
2022/08/09 19:20:50;;;;;;;;;;;;;;;20.71;48.39;96345.47;10357202;28;1981;-68
2022/08/09 19:26:01;;;;;;;;;;;;;;;20.60;48.78;96355.94;10363701;28;1781;-67
2022/08/09 19:31:07;;;;;;;;;;;;;;;20.46;48.92;96347.13;10340159;28;3011;-66
2022/08/09 19:36:10;;;;;;;;;;;21.30;99.90;;;20.48;49.51;96353.84;10354006;28;1848;-68
2022/08/09 19:41:16;;;;;;;;;;;21.20;99.90;;;20.36;50.08;96361.88;10357639;28;1907;-67
2022/08/09 19:52:45;;;;;;;;;;;21.10;99.90;;;20.12;50.39;96356.09;10356729;28;2062;-68
2022/08/09 19:57:53;;;;;;;;;;;21.10;99.90;;;20.01;50.71;96357.53;10359678;28;1804;-71
2022/08/09 20:02:56;;;;;;;;;;;21.00;99.90;;;20.02;50.83;96361.84;10344260;28;1914;-67
2022/08/09 20:08:20;;;;;;;;;;;20.60;99.90;;;19.95;50.74;96363.13;10341192;28;1775;-69
2022/08/09 20:13:36;;;;;;;;;;;20.70;99.90;;;19.79;51.39;96364.72;10338843;28;1954;-67
2022/08/09 20:18:43;;;;;;;;;;;20.70;99.90;;;19.69;51.78;96365.03;10365930;28;1890;-68
2022/08/09 20:24:06;;;;;;;;;;;20.60;99.90;;;19.62;51.82;96370.13;10363628;28;2170;-67
2022/08/09 20:29:12;;;;;;;;;;;20.40;99.90;;;19.58;51.93;96369.16;10370867;28;2263;-72
2022/08/09 20:34:21;;;;;;;;;;;20.60;99.90;;;19.61;51.78;96368.53;10328650;28;1936;-71
2022/08/09 20:39:26;;;;;;;;;;;20.50;99.90;;;19.57;52.45;96365.59;10367584;28;1974;-69
2022/08/09 20:44:49;;;;;;;;;;;20.50;99.90;;;19.40;52.81;96373.72;10346336;28;2105;-67
2022/08/09 20:50:13;;;;;;;;;;;20.40;99.90;;;19.37;52.65;96374.34;10368908;28;1996;-68
2022/08/09 20:55:37;;;;;;;;;;;20.30;99.90;;;19.30;53.15;96374.00;10349018;28;2040;-67
2022/08/09 21:01:00;;;;;;;;;;;20.30;99.90;;;19.21;53.39;96382.13;10355682;28;1959;-68
2022/08/09 21:06:23;;;;;;;;;;;20.20;99.90;;;19.15;53.81;96389.66;10371605;28;1926;-67
2022/08/09 21:11:33;;;;;;;;;;;20.10;99.90;;;19.00;54.79;96381.88;10373386;28;1957;-67
2022/08/09 21:16:56;;;;;;;;;;;19.90;99.90;;;18.93;55.54;96386.16;10374539;28;2082;-67
2022/08/09 21:22:01;;;;;;;;;;;19.70;99.90;;;18.67;56.67;96378.63;10370600;28;2011;-67
2022/08/09 21:27:04;;;;;;;;;;;19.70;99.90;;;18.61;57.69;96377.13;10344881;28;1976;-67
2022/08/09 21:32:27;;;;;;;;;;;19.50;99.90;;;18.58;57.62;96375.03;10372371;28;1962;-66
2022/08/09 21:37:35;;;;;;;;;;;19.60;99.90;;;18.54;58.37;96363.16;10343316;28;1989;-66
2022/08/09 21:42:58;;;;;;;;;;;19.40;99.90;;;18.53;58.66;96367.78;10335927;28;1964;-67
2022/08/09 21:48:02;;;;;;;;;;;19.30;99.90;;;18.21;60.01;96379.72;10370880;28;1972;-67
2022/08/09 21:53:06;;;;;;;;;;;20.00;99.90;;;18.14;61.23;96382.06;10361559;28;2060;-66
2022/08/09 21:58:26;;;;;;;;;;;;;;;18.04;61.58;96380.34;10375584;28;1948;-67
2022/08/09 22:03:34;;;;;;;;;;;;;;;17.98;62.43;96375.34;10366545;28;1956;-67
2022/08/09 22:08:51;;;;;;;;;;;;;;;17.94;63.00;96387.94;10375068;28;1979;-68
2022/08/09 22:13:55;;;;;;;;;;;;;;;18.03;63.16;96386.13;10355793;28;2156;-69
2022/08/09 22:19:01;;;;;;;;;;;;;;;18.05;63.65;96378.44;10379329;28;1881;-66
2022/08/09 22:24:25;;;;;;;;;;;;;;;17.92;64.21;96373.84;10378593;28;2080;-67
2022/08/09 22:29:29;;;;;;;;;;;;;;;17.84;64.93;96378.09;10359551;28;1936;-74
2022/08/09 22:34:52;;;;;;;;;;;;;;;17.73;66.10;96377.50;10367909;28;1970;-67
2022/08/09 22:40:09;;;;;;;;;;;;;;;17.71;66.40;96360.69;10358678;28;1953;-68
2022/08/09 22:45:22;;;;;;;;;;;;;;;17.72;66.46;96359.56;10361365;28;1983;-67
2022/08/09 22:50:46;;;;;;;;;;;;;;;17.58;67.60;96358.78;10361519;28;1791;-67
2022/08/09 22:55:55;;;;;;;;;;;;;;;17.53;67.98;96356.16;10369030;28;1956;-67
2022/08/09 23:01:19;;;;;;;;;;;;;;;17.45;68.60;96344.09;10353145;28;1918;-67
2022/08/09 23:06:24;;;;;;;;;;;;;;;17.43;69.52;96348.19;10365682;28;1949;-68
2022/08/09 23:11:37;;;;;;;;;;;;;;;17.44;69.80;96336.25;10356476;28;1998;-68
2022/08/09 23:16:41;;;;;;;;;;;;;;;17.64;69.36;96332.28;10367937;28;1930;-67
2022/08/09 23:21:45;;;;;;;;;;;;;;;17.43;69.16;96335.44;10369297;28;1962;-67
2022/08/09 23:26:48;;;;;;;;;;;;;;;17.36;69.75;96334.22;10355601;28;1992;-65
2022/08/09 23:31:52;;;;;;;;;;;;;;;17.29;70.62;96335.41;10366506;28;2648;-66
2022/08/09 23:36:56;;;;;;;;;;;;;;;17.17;71.09;96335.13;10364612;28;1990;-66
2022/08/09 23:42:00;;;;;;;;;;;;;;;17.33;71.79;96337.56;10355635;28;1971;-67
2022/08/09 23:47:04;;;;;;;;;;;;;;;17.06;71.97;96339.16;10369331;28;2000;-66
2022/08/09 23:52:08;;;;;;;;;;;17.90;99.90;;;16.76;73.72;96332.38;10376277;28;1893;-66
2022/08/09 23:57:13;;;;;;;;;;;17.80;99.90;;;16.83;73.60;96338.22;10367509;28;1912;-66
